Adelaide, California
Current Conditions -  °F | °C
As of 3:53 PM on Sunday 25 Jan 2015 (Local Time) from KPRB Reporting Station
Clear Clear  
Wind Chill: 77°   Ceiling: Unl
Heat Index: 77°   Visibility: 10mi
Dew Point: 38°   Wind: 0mph
Humidity: 24%   Direction: NA
Pressure: 30"   Gusts: NA
Location:  35.6618°N, 120.707°W
Report Text: KPRB 252353Z AUTO 00000KT 10SM CLR 25/03 A3000 RMK AO2 SLP154 T02500033 10250 20078 56017 TSNO
Loading
Personal Weather Stations






























Interactive Weather Map New forecast layout! Learn more

10-Day Weather Forecast

Advertisements
Track Severe Weather on mobile